sensor_id;sensor_type;location;lat;lon;timestamp;P1;durP1;ratioP1;P2;durP2;ratioP2
3189;SDS011;1606;51.946;10.558;2022-10-16T00:01:35;6.60;;;1.73;;
3189;SDS011;1606;51.946;10.558;2022-10-16T00:04:03;5.97;;;1.50;;
3189;SDS011;1606;51.946;10.558;2022-10-16T00:06:33;6.10;;;1.70;;
3189;SDS011;1606;51.946;10.558;2022-10-16T00:09:00;5.67;;;1.47;;
3189;SDS011;1606;51.946;10.558;2022-10-16T00:11:29;6.03;;;1.93;;
3189;SDS011;1606;51.946;10.558;2022-10-16T00:14:00;6.57;;;2.10;;
3189;SDS011;1606;51.946;10.558;2022-10-16T00:16:29;7.07;;;1.60;;
3189;SDS011;1606;51.946;10.558;2022-10-16T00:18:57;6.27;;;2.33;;
3189;SDS011;1606;51.946;10.558;2022-10-16T00:21:25;9.67;;;2.13;;
3189;SDS011;1606;51.946;10.558;2022-10-16T00:23:57;6.10;;;1.40;;
3189;SDS011;1606;51.946;10.558;2022-10-16T00:26:27;5.87;;;1.73;;
3189;SDS011;1606;51.946;10.558;2022-10-16T00:28:56;6.10;;;1.80;;
3189;SDS011;1606;51.946;10.558;2022-10-16T00:31:25;6.87;;;1.70;;
3189;SDS011;1606;51.946;10.558;2022-10-16T00:33:53;8.60;;;2.13;;
3189;SDS011;1606;51.946;10.558;2022-10-16T00:36:22;8.10;;;1.80;;
3189;SDS011;1606;51.946;10.558;2022-10-16T00:38:51;9.07;;;2.37;;
3189;SDS011;1606;51.946;10.558;2022-10-16T00:41:23;6.50;;;2.27;;
3189;SDS011;1606;51.946;10.558;2022-10-16T00:43:52;6.10;;;1.63;;
3189;SDS011;1606;51.946;10.558;2022-10-16T00:46:22;6.00;;;1.67;;
3189;SDS011;1606;51.946;10.558;2022-10-16T00:48:54;7.03;;;2.23;;
3189;SDS011;1606;51.946;10.558;2022-10-16T00:51:25;6.20;;;2.00;;
3189;SDS011;1606;51.946;10.558;2022-10-16T00:53:57;6.63;;;1.63;;
3189;SDS011;1606;51.946;10.558;2022-10-16T00:56:27;6.70;;;2.13;;
3189;SDS011;1606;51.946;10.558;2022-10-16T00:58:55;6.63;;;2.20;;
3189;SDS011;1606;51.946;10.558;2022-10-16T01:01:23;6.80;;;2.20;;
3189;SDS011;1606;51.946;10.558;2022-10-16T01:03:51;8.83;;;1.60;;
3189;SDS011;1606;51.946;10.558;2022-10-16T01:06:21;6.83;;;2.00;;
3189;SDS011;1606;51.946;10.558;2022-10-16T01:09:05;7.50;;;1.90;;
3189;SDS011;1606;51.946;10.558;2022-10-16T01:11:44;6.93;;;1.90;;
3189;SDS011;1606;51.946;10.558;2022-10-16T01:14:22;11.67;;;2.30;;
3189;SDS011;1606;51.946;10.558;2022-10-16T01:16:54;7.67;;;2.10;;
3189;SDS011;1606;51.946;10.558;2022-10-16T01:19:36;6.73;;;2.17;;
3189;SDS011;1606;51.946;10.558;2022-10-16T01:22:17;7.10;;;2.00;;
3189;SDS011;1606;51.946;10.558;2022-10-16T01:24:48;8.57;;;2.37;;
3189;SDS011;1606;51.946;10.558;2022-10-16T01:27:18;6.33;;;2.17;;
3189;SDS011;1606;51.946;10.558;2022-10-16T01:29:52;10.23;;;2.50;;
3189;SDS011;1606;51.946;10.558;2022-10-16T01:32:23;8.73;;;2.07;;
3189;SDS011;1606;51.946;10.558;2022-10-16T01:34:57;8.53;;;2.10;;
3189;SDS011;1606;51.946;10.558;2022-10-16T01:37:32;8.63;;;2.00;;
3189;SDS011;1606;51.946;10.558;2022-10-16T01:40:05;7.90;;;2.63;;
3189;SDS011;1606;51.946;10.558;2022-10-16T01:42:38;7.33;;;2.23;;
3189;SDS011;1606;51.946;10.558;2022-10-16T01:45:11;6.50;;;1.90;;
3189;SDS011;1606;51.946;10.558;2022-10-16T01:47:41;7.43;;;1.97;;
3189;SDS011;1606;51.946;10.558;2022-10-16T01:50:10;6.57;;;1.90;;
3189;SDS011;1606;51.946;10.558;2022-10-16T01:52:40;8.43;;;2.50;;
3189;SDS011;1606;51.946;10.558;2022-10-16T01:55:11;6.97;;;2.33;;
3189;SDS011;1606;51.946;10.558;2022-10-16T01:57:46;6.87;;;2.20;;
3189;SDS011;1606;51.946;10.558;2022-10-16T02:00:17;7.70;;;2.40;;
3189;SDS011;1606;51.946;10.558;2022-10-16T02:02:47;6.50;;;1.97;;
3189;SDS011;1606;51.946;10.558;2022-10-16T02:05:20;6.10;;;1.97;;
3189;SDS011;1606;51.946;10.558;2022-10-16T02:07:51;7.47;;;2.00;;
3189;SDS011;1606;51.946;10.558;2022-10-16T02:10:19;7.37;;;1.70;;
3189;SDS011;1606;51.946;10.558;2022-10-16T02:12:50;6.70;;;2.37;;
3189;SDS011;1606;51.946;10.558;2022-10-16T02:15:22;6.70;;;2.10;;
3189;SDS011;1606;51.946;10.558;2022-10-16T02:17:50;7.00;;;1.97;;
3189;SDS011;1606;51.946;10.558;2022-10-16T02:20:18;7.30;;;2.00;;
3189;SDS011;1606;51.946;10.558;2022-10-16T02:22:49;6.20;;;1.63;;
3189;SDS011;1606;51.946;10.558;2022-10-16T02:25:19;7.50;;;2.13;;
3189;SDS011;1606;51.946;10.558;2022-10-16T02:27:53;8.00;;;2.10;;
3189;SDS011;1606;51.946;10.558;2022-10-16T02:30:25;7.67;;;2.30;;
3189;SDS011;1606;51.946;10.558;2022-10-16T02:32:56;7.07;;;1.97;;
3189;SDS011;1606;51.946;10.558;2022-10-16T02:35:27;7.57;;;1.97;;
3189;SDS011;1606;51.946;10.558;2022-10-16T02:37:56;6.93;;;2.03;;
3189;SDS011;1606;51.946;10.558;2022-10-16T02:40:25;8.13;;;2.23;;
3189;SDS011;1606;51.946;10.558;2022-10-16T02:42:55;7.47;;;2.03;;
3189;SDS011;1606;51.946;10.558;2022-10-16T02:45:23;7.80;;;2.10;;
3189;SDS011;1606;51.946;10.558;2022-10-16T02:47:51;6.87;;;2.37;;
3189;SDS011;1606;51.946;10.558;2022-10-16T02:50:19;7.57;;;2.57;;
3189;SDS011;1606;51.946;10.558;2022-10-16T02:52:48;6.63;;;1.80;;
3189;SDS011;1606;51.946;10.558;2022-10-16T02:55:16;7.23;;;2.13;;
3189;SDS011;1606;51.946;10.558;2022-10-16T02:57:43;7.00;;;2.47;;
3189;SDS011;1606;51.946;10.558;2022-10-16T03:00:14;7.27;;;2.20;;
3189;SDS011;1606;51.946;10.558;2022-10-16T03:02:43;7.90;;;2.30;;
3189;SDS011;1606;51.946;10.558;2022-10-16T03:05:11;8.00;;;2.07;;
3189;SDS011;1606;51.946;10.558;2022-10-16T03:07:40;7.00;;;2.50;;
3189;SDS011;1606;51.946;10.558;2022-10-16T03:10:08;8.20;;;2.00;;
3189;SDS011;1606;51.946;10.558;2022-10-16T03:12:36;6.87;;;1.60;;
3189;SDS011;1606;51.946;10.558;2022-10-16T03:15:04;6.50;;;2.00;;
3189;SDS011;1606;51.946;10.558;2022-10-16T03:17:34;7.10;;;2.10;;
3189;SDS011;1606;51.946;10.558;2022-10-16T03:20:02;7.07;;;2.10;;
3189;SDS011;1606;51.946;10.558;2022-10-16T03:22:30;7.67;;;2.73;;
3189;SDS011;1606;51.946;10.558;2022-10-16T03:24:58;7.73;;;1.90;;
3189;SDS011;1606;51.946;10.558;2022-10-16T03:27:26;6.67;;;2.20;;
3189;SDS011;1606;51.946;10.558;2022-10-16T03:29:54;9.07;;;2.43;;
3189;SDS011;1606;51.946;10.558;2022-10-16T03:32:22;10.73;;;2.40;;
3189;SDS011;1606;51.946;10.558;2022-10-16T03:34:52;9.67;;;1.90;;
3189;SDS011;1606;51.946;10.558;2022-10-16T03:37:22;9.17;;;2.20;;
3189;SDS011;1606;51.946;10.558;2022-10-16T03:39:51;7.27;;;2.60;;
3189;SDS011;1606;51.946;10.558;2022-10-16T03:42:19;8.43;;;2.60;;
3189;SDS011;1606;51.946;10.558;2022-10-16T03:44:46;7.33;;;2.60;;
3189;SDS011;1606;51.946;10.558;2022-10-16T03:47:14;8.60;;;2.03;;
3189;SDS011;1606;51.946;10.558;2022-10-16T03:49:47;8.87;;;2.10;;
3189;SDS011;1606;51.946;10.558;2022-10-16T03:52:16;8.00;;;2.50;;
3189;SDS011;1606;51.946;10.558;2022-10-16T03:54:49;6.40;;;2.07;;
3189;SDS011;1606;51.946;10.558;2022-10-16T03:57:16;6.90;;;1.93;;
3189;SDS011;1606;51.946;10.558;2022-10-16T03:59:44;8.83;;;1.90;;
3189;SDS011;1606;51.946;10.558;2022-10-16T04:02:12;7.00;;;2.03;;
3189;SDS011;1606;51.946;10.558;2022-10-16T04:04:40;7.50;;;2.47;;
3189;SDS011;1606;51.946;10.558;2022-10-16T04:07:08;6.07;;;1.80;;
3189;SDS011;1606;51.946;10.558;2022-10-16T04:09:37;7.10;;;1.83;;
3189;SDS011;1606;51.946;10.558;2022-10-16T04:12:05;6.40;;;1.90;;
3189;SDS011;1606;51.946;10.558;2022-10-16T04:14:32;6.30;;;1.93;;
3189;SDS011;1606;51.946;10.558;2022-10-16T04:17:00;6.70;;;2.40;;
3189;SDS011;1606;51.946;10.558;2022-10-16T04:19:28;7.20;;;1.93;;
3189;SDS011;1606;51.946;10.558;2022-10-16T04:21:56;6.47;;;1.97;;
3189;SDS011;1606;51.946;10.558;2022-10-16T04:24:24;6.40;;;1.70;;
3189;SDS011;1606;51.946;10.558;2022-10-16T04:26:53;9.47;;;2.20;;
3189;SDS011;1606;51.946;10.558;2022-10-16T04:29:21;6.23;;;1.90;;
3189;SDS011;1606;51.946;10.558;2022-10-16T04:31:48;6.50;;;2.10;;
3189;SDS011;1606;51.946;10.558;2022-10-16T04:34:16;6.67;;;2.33;;
3189;SDS011;1606;51.946;10.558;2022-10-16T04:36:46;6.83;;;1.90;;
3189;SDS011;1606;51.946;10.558;2022-10-16T04:39:14;7.77;;;2.10;;
3189;SDS011;1606;51.946;10.558;2022-10-16T04:41:42;7.17;;;2.30;;
3189;SDS011;1606;51.946;10.558;2022-10-16T04:44:12;6.50;;;2.00;;
3189;SDS011;1606;51.946;10.558;2022-10-16T04:46:40;6.87;;;1.90;;
3189;SDS011;1606;51.946;10.558;2022-10-16T04:49:08;5.80;;;1.70;;
3189;SDS011;1606;51.946;10.558;2022-10-16T04:51:35;6.33;;;1.70;;
3189;SDS011;1606;51.946;10.558;2022-10-16T04:54:03;6.33;;;2.00;;
3189;SDS011;1606;51.946;10.558;2022-10-16T04:56:31;6.10;;;1.50;;
3189;SDS011;1606;51.946;10.558;2022-10-16T04:58:59;8.07;;;2.00;;
3189;SDS011;1606;51.946;10.558;2022-10-16T05:01:28;8.57;;;2.80;;
3189;SDS011;1606;51.946;10.558;2022-10-16T05:03:56;7.43;;;2.13;;
3189;SDS011;1606;51.946;10.558;2022-10-16T05:06:23;8.63;;;2.10;;
3189;SDS011;1606;51.946;10.558;2022-10-16T05:08:51;6.87;;;1.80;;
3189;SDS011;1606;51.946;10.558;2022-10-16T05:11:19;9.50;;;2.70;;
3189;SDS011;1606;51.946;10.558;2022-10-16T05:13:47;8.30;;;2.00;;
3189;SDS011;1606;51.946;10.558;2022-10-16T05:16:20;7.10;;;2.40;;
3189;SDS011;1606;51.946;10.558;2022-10-16T05:18:50;6.23;;;1.97;;
3189;SDS011;1606;51.946;10.558;2022-10-16T05:21:29;6.40;;;2.00;;
3189;SDS011;1606;51.946;10.558;2022-10-16T05:23:57;7.77;;;1.90;;
3189;SDS011;1606;51.946;10.558;2022-10-16T05:26:25;16.23;;;2.40;;
3189;SDS011;1606;51.946;10.558;2022-10-16T05:28:53;6.67;;;2.30;;
3189;SDS011;1606;51.946;10.558;2022-10-16T05:31:20;7.95;;;2.30;;
3189;SDS011;1606;51.946;10.558;2022-10-16T05:33:50;6.63;;;2.23;;
3189;SDS011;1606;51.946;10.558;2022-10-16T05:36:17;6.90;;;2.13;;
3189;SDS011;1606;51.946;10.558;2022-10-16T05:38:45;6.50;;;2.10;;
3189;SDS011;1606;51.946;10.558;2022-10-16T05:41:18;8.13;;;2.53;;
3189;SDS011;1606;51.946;10.558;2022-10-16T05:43:47;7.87;;;2.30;;
3189;SDS011;1606;51.946;10.558;2022-10-16T05:46:15;6.93;;;2.23;;
3189;SDS011;1606;51.946;10.558;2022-10-16T05:48:44;8.47;;;3.13;;
3189;SDS011;1606;51.946;10.558;2022-10-16T05:51:13;8.93;;;2.70;;
3189;SDS011;1606;51.946;10.558;2022-10-16T05:53:42;7.30;;;2.77;;
3189;SDS011;1606;51.946;10.558;2022-10-16T05:56:10;7.90;;;2.90;;
3189;SDS011;1606;51.946;10.558;2022-10-16T05:58:39;8.17;;;3.17;;
3189;SDS011;1606;51.946;10.558;2022-10-16T06:01:09;12.40;;;2.70;;
3189;SDS011;1606;51.946;10.558;2022-10-16T06:03:39;8.23;;;2.97;;
3189;SDS011;1606;51.946;10.558;2022-10-16T06:06:07;6.80;;;2.50;;
3189;SDS011;1606;51.946;10.558;2022-10-16T06:08:39;8.00;;;3.03;;
3189;SDS011;1606;51.946;10.558;2022-10-16T06:11:08;7.27;;;2.53;;
3189;SDS011;1606;51.946;10.558;2022-10-16T06:13:37;9.47;;;3.27;;
3189;SDS011;1606;51.946;10.558;2022-10-16T06:16:07;8.10;;;3.30;;
3189;SDS011;1606;51.946;10.558;2022-10-16T06:18:35;9.53;;;3.53;;
3189;SDS011;1606;51.946;10.558;2022-10-16T06:21:06;8.90;;;3.83;;
3189;SDS011;1606;51.946;10.558;2022-10-16T06:23:35;7.63;;;3.00;;
3189;SDS011;1606;51.946;10.558;2022-10-16T06:26:08;8.50;;;2.60;;
3189;SDS011;1606;51.946;10.558;2022-10-16T06:28:38;7.30;;;2.53;;
3189;SDS011;1606;51.946;10.558;2022-10-16T06:31:07;9.60;;;3.40;;
3189;SDS011;1606;51.946;10.558;2022-10-16T06:33:36;12.60;;;3.73;;
3189;SDS011;1606;51.946;10.558;2022-10-16T06:36:07;8.67;;;3.70;;
3189;SDS011;1606;51.946;10.558;2022-10-16T06:38:36;11.50;;;4.40;;
3189;SDS011;1606;51.946;10.558;2022-10-16T06:41:05;10.30;;;4.30;;
3189;SDS011;1606;51.946;10.558;2022-10-16T06:43:35;9.90;;;4.60;;
3189;SDS011;1606;51.946;10.558;2022-10-16T06:46:04;8.90;;;3.57;;
3189;SDS011;1606;51.946;10.558;2022-10-16T06:48:33;10.77;;;3.93;;
3189;SDS011;1606;51.946;10.558;2022-10-16T06:51:03;11.33;;;4.00;;
3189;SDS011;1606;51.946;10.558;2022-10-16T06:53:33;8.23;;;4.10;;
3189;SDS011;1606;51.946;10.558;2022-10-16T06:56:14;10.00;;;4.37;;
3189;SDS011;1606;51.946;10.558;2022-10-16T06:58:45;10.50;;;4.53;;
3189;SDS011;1606;51.946;10.558;2022-10-16T07:01:14;9.33;;;3.50;;
3189;SDS011;1606;51.946;10.558;2022-10-16T07:03:43;12.70;;;4.63;;
3189;SDS011;1606;51.946;10.558;2022-10-16T07:06:14;9.00;;;3.60;;
3189;SDS011;1606;51.946;10.558;2022-10-16T07:08:44;8.00;;;3.43;;
3189;SDS011;1606;51.946;10.558;2022-10-16T07:11:13;9.23;;;3.93;;
3189;SDS011;1606;51.946;10.558;2022-10-16T07:13:42;8.93;;;3.23;;
3189;SDS011;1606;51.946;10.558;2022-10-16T07:16:20;9.00;;;3.50;;
3189;SDS011;1606;51.946;10.558;2022-10-16T07:18:49;7.90;;;3.23;;
3189;SDS011;1606;51.946;10.558;2022-10-16T07:21:21;8.87;;;3.47;;
3189;SDS011;1606;51.946;10.558;2022-10-16T07:23:51;9.27;;;3.50;;
3189;SDS011;1606;51.946;10.558;2022-10-16T07:26:20;11.13;;;3.70;;
3189;SDS011;1606;51.946;10.558;2022-10-16T07:28:49;7.37;;;2.30;;
3189;SDS011;1606;51.946;10.558;2022-10-16T07:31:18;7.17;;;1.77;;
3189;SDS011;1606;51.946;10.558;2022-10-16T07:33:47;6.57;;;1.70;;
3189;SDS011;1606;51.946;10.558;2022-10-16T07:36:15;6.57;;;1.97;;
3189;SDS011;1606;51.946;10.558;2022-10-16T07:38:45;6.60;;;1.90;;
3189;SDS011;1606;51.946;10.558;2022-10-16T07:41:14;6.60;;;1.90;;
3189;SDS011;1606;51.946;10.558;2022-10-16T07:43:45;8.60;;;1.40;;
3189;SDS011;1606;51.946;10.558;2022-10-16T07:46:14;6.00;;;1.53;;
3189;SDS011;1606;51.946;10.558;2022-10-16T07:48:44;5.60;;;1.27;;
3189;SDS011;1606;51.946;10.558;2022-10-16T07:51:13;6.93;;;1.60;;
3189;SDS011;1606;51.946;10.558;2022-10-16T07:53:42;8.63;;;1.60;;
3189;SDS011;1606;51.946;10.558;2022-10-16T07:56:10;5.97;;;1.50;;
3189;SDS011;1606;51.946;10.558;2022-10-16T07:58:39;6.47;;;1.43;;
3189;SDS011;1606;51.946;10.558;2022-10-16T08:01:07;6.07;;;1.67;;
3189;SDS011;1606;51.946;10.558;2022-10-16T08:03:38;5.93;;;1.40;;
3189;SDS011;1606;51.946;10.558;2022-10-16T08:06:05;7.67;;;1.30;;
3189;SDS011;1606;51.946;10.558;2022-10-16T08:08:34;7.20;;;1.73;;
3189;SDS011;1606;51.946;10.558;2022-10-16T08:11:02;7.07;;;1.60;;
3189;SDS011;1606;51.946;10.558;2022-10-16T08:13:30;5.90;;;1.20;;
3189;SDS011;1606;51.946;10.558;2022-10-16T08:15:58;5.80;;;1.10;;
3189;SDS011;1606;51.946;10.558;2022-10-16T08:18:26;11.40;;;3.30;;
3189;SDS011;1606;51.946;10.558;2022-10-16T08:20:58;7.93;;;1.30;;
3189;SDS011;1606;51.946;10.558;2022-10-16T08:23:27;5.40;;;1.40;;
3189;SDS011;1606;51.946;10.558;2022-10-16T08:25:55;6.53;;;1.20;;
3189;SDS011;1606;51.946;10.558;2022-10-16T08:28:28;5.50;;;1.27;;
3189;SDS011;1606;51.946;10.558;2022-10-16T08:31:03;6.07;;;1.27;;
3189;SDS011;1606;51.946;10.558;2022-10-16T08:33:32;6.30;;;1.27;;
3189;SDS011;1606;51.946;10.558;2022-10-16T08:36:02;7.00;;;1.30;;
3189;SDS011;1606;51.946;10.558;2022-10-16T08:38:30;4.73;;;0.90;;
3189;SDS011;1606;51.946;10.558;2022-10-16T08:41:02;5.00;;;0.80;;
3189;SDS011;1606;51.946;10.558;2022-10-16T08:43:53;4.80;;;1.33;;
3189;SDS011;1606;51.946;10.558;2022-10-16T08:46:37;5.50;;;0.97;;
3189;SDS011;1606;51.946;10.558;2022-10-16T08:49:15;5.13;;;1.10;;
3189;SDS011;1606;51.946;10.558;2022-10-16T08:51:45;4.73;;;0.80;;
3189;SDS011;1606;51.946;10.558;2022-10-16T08:54:20;6.20;;;1.50;;
3189;SDS011;1606;51.946;10.558;2022-10-16T08:56:53;9.23;;;1.20;;
3189;SDS011;1606;51.946;10.558;2022-10-16T08:59:22;4.90;;;1.10;;
3189;SDS011;1606;51.946;10.558;2022-10-16T09:01:50;4.80;;;1.00;;
3189;SDS011;1606;51.946;10.558;2022-10-16T09:04:27;6.07;;;0.90;;
3189;SDS011;1606;51.946;10.558;2022-10-16T09:07:23;5.77;;;1.20;;
3189;SDS011;1606;51.946;10.558;2022-10-16T09:10:04;4.87;;;1.13;;
3189;SDS011;1606;51.946;10.558;2022-10-16T09:12:44;4.63;;;0.97;;
3189;SDS011;1606;51.946;10.558;2022-10-16T09:15:22;5.32;;;0.90;;
3189;SDS011;1606;51.946;10.558;2022-10-16T09:17:55;6.30;;;1.03;;
3189;SDS011;1606;51.946;10.558;2022-10-16T09:20:28;6.97;;;1.00;;
3189;SDS011;1606;51.946;10.558;2022-10-16T09:23:10;5.00;;;1.10;;
3189;SDS011;1606;51.946;10.558;2022-10-16T09:25:43;5.80;;;0.93;;
3189;SDS011;1606;51.946;10.558;2022-10-16T09:28:13;5.40;;;0.97;;
3189;SDS011;1606;51.946;10.558;2022-10-16T09:30:42;4.67;;;0.90;;
3189;SDS011;1606;51.946;10.558;2022-10-16T09:33:11;7.07;;;1.50;;
3189;SDS011;1606;51.946;10.558;2022-10-16T09:35:40;5.00;;;1.20;;
3189;SDS011;1606;51.946;10.558;2022-10-16T09:38:23;6.40;;;0.93;;
3189;SDS011;1606;51.946;10.558;2022-10-16T09:40:54;4.70;;;1.00;;
3189;SDS011;1606;51.946;10.558;2022-10-16T09:43:28;4.97;;;1.00;;
3189;SDS011;1606;51.946;10.558;2022-10-16T09:46:02;5.93;;;1.10;;
3189;SDS011;1606;51.946;10.558;2022-10-16T09:48:32;6.27;;;1.30;;
3189;SDS011;1606;51.946;10.558;2022-10-16T09:51:04;4.80;;;0.93;;
3189;SDS011;1606;51.946;10.558;2022-10-16T09:53:39;4.90;;;1.00;;
3189;SDS011;1606;51.946;10.558;2022-10-16T09:56:10;4.90;;;0.90;;
3189;SDS011;1606;51.946;10.558;2022-10-16T09:58:43;5.57;;;1.10;;
3189;SDS011;1606;51.946;10.558;2022-10-16T10:01:16;5.43;;;0.97;;
3189;SDS011;1606;51.946;10.558;2022-10-16T10:03:45;6.30;;;1.20;;
3189;SDS011;1606;51.946;10.558;2022-10-16T10:06:17;4.67;;;0.90;;
3189;SDS011;1606;51.946;10.558;2022-10-16T10:08:56;5.27;;;1.10;;
3189;SDS011;1606;51.946;10.558;2022-10-16T10:11:37;4.83;;;1.00;;
3189;SDS011;1606;51.946;10.558;2022-10-16T10:14:14;5.00;;;1.00;;
3189;SDS011;1606;51.946;10.558;2022-10-16T10:16:45;9.63;;;1.30;;
3189;SDS011;1606;51.946;10.558;2022-10-16T10:19:15;6.23;;;1.10;;
3189;SDS011;1606;51.946;10.558;2022-10-16T10:21:44;5.07;;;1.00;;
3189;SDS011;1606;51.946;10.558;2022-10-16T10:24:14;5.63;;;1.30;;
3189;SDS011;1606;51.946;10.558;2022-10-16T10:26:45;6.57;;;1.00;;
3189;SDS011;1606;51.946;10.558;2022-10-16T10:29:38;5.10;;;1.10;;
3189;SDS011;1606;51.946;10.558;2022-10-16T10:32:17;7.27;;;1.20;;
3189;SDS011;1606;51.946;10.558;2022-10-16T10:35:12;5.20;;;1.20;;
3189;SDS011;1606;51.946;10.558;2022-10-16T10:37:47;5.40;;;1.10;;
3189;SDS011;1606;51.946;10.558;2022-10-16T10:40:29;6.83;;;1.10;;
3189;SDS011;1606;51.946;10.558;2022-10-16T10:43:07;6.27;;;1.00;;
3189;SDS011;1606;51.946;10.558;2022-10-16T10:45:44;4.90;;;0.80;;
3189;SDS011;1606;51.946;10.558;2022-10-16T10:48:17;8.63;;;0.90;;
3189;SDS011;1606;51.946;10.558;2022-10-16T10:50:52;5.67;;;0.90;;
3189;SDS011;1606;51.946;10.558;2022-10-16T10:53:28;5.50;;;1.00;;
3189;SDS011;1606;51.946;10.558;2022-10-16T10:56:08;6.03;;;1.37;;
3189;SDS011;1606;51.946;10.558;2022-10-16T10:58:47;4.83;;;1.20;;
3189;SDS011;1606;51.946;10.558;2022-10-16T11:01:39;7.03;;;1.00;;
3189;SDS011;1606;51.946;10.558;2022-10-16T11:07:17;4.50;;;0.70;;
3189;SDS011;1606;51.946;10.558;2022-10-16T11:09:49;6.13;;;0.80;;
3189;SDS011;1606;51.946;10.558;2022-10-16T11:12:22;5.40;;;1.00;;
3189;SDS011;1606;51.946;10.558;2022-10-16T11:14:56;5.20;;;0.80;;
3189;SDS011;1606;51.946;10.558;2022-10-16T11:17:29;4.70;;;0.87;;
3189;SDS011;1606;51.946;10.558;2022-10-16T11:20:04;5.73;;;0.80;;
3189;SDS011;1606;51.946;10.558;2022-10-16T11:22:39;5.63;;;0.90;;
3189;SDS011;1606;51.946;10.558;2022-10-16T11:25:14;4.70;;;0.90;;
3189;SDS011;1606;51.946;10.558;2022-10-16T11:27:48;5.07;;;0.80;;
3189;SDS011;1606;51.946;10.558;2022-10-16T11:30:20;6.60;;;0.93;;
3189;SDS011;1606;51.946;10.558;2022-10-16T11:32:56;5.43;;;0.97;;
3189;SDS011;1606;51.946;10.558;2022-10-16T11:35:37;5.43;;;0.80;;
3189;SDS011;1606;51.946;10.558;2022-10-16T11:38:10;6.63;;;1.27;;
3189;SDS011;1606;51.946;10.558;2022-10-16T11:40:45;4.40;;;0.70;;
3189;SDS011;1606;51.946;10.558;2022-10-16T11:43:22;5.70;;;1.00;;
3189;SDS011;1606;51.946;10.558;2022-10-16T11:45:54;4.90;;;0.80;;
3189;SDS011;1606;51.946;10.558;2022-10-16T11:48:26;4.93;;;0.87;;
3189;SDS011;1606;51.946;10.558;2022-10-16T11:51:00;5.07;;;0.90;;
3189;SDS011;1606;51.946;10.558;2022-10-16T11:53:38;5.10;;;0.90;;
3189;SDS011;1606;51.946;10.558;2022-10-16T11:56:12;5.93;;;1.10;;
3189;SDS011;1606;51.946;10.558;2022-10-16T11:58:47;4.93;;;0.80;;
3189;SDS011;1606;51.946;10.558;2022-10-16T12:01:22;6.03;;;1.00;;
3189;SDS011;1606;51.946;10.558;2022-10-16T12:04:02;5.57;;;0.90;;
3189;SDS011;1606;51.946;10.558;2022-10-16T12:06:41;5.77;;;1.00;;
3189;SDS011;1606;51.946;10.558;2022-10-16T12:09:15;4.50;;;0.73;;
3189;SDS011;1606;51.946;10.558;2022-10-16T12:11:48;4.70;;;0.80;;
3189;SDS011;1606;51.946;10.558;2022-10-16T12:14:22;5.10;;;1.27;;
3189;SDS011;1606;51.946;10.558;2022-10-16T12:17:23;4.57;;;0.70;;
3189;SDS011;1606;51.946;10.558;2022-10-16T12:19:56;4.70;;;0.83;;
3189;SDS011;1606;51.946;10.558;2022-10-16T12:22:26;4.57;;;0.90;;
3189;SDS011;1606;51.946;10.558;2022-10-16T12:24:57;5.10;;;0.80;;
3189;SDS011;1606;51.946;10.558;2022-10-16T12:27:27;5.23;;;1.10;;
3189;SDS011;1606;51.946;10.558;2022-10-16T12:29:59;4.50;;;0.80;;
3189;SDS011;1606;51.946;10.558;2022-10-16T12:32:30;5.60;;;1.27;;
3189;SDS011;1606;51.946;10.558;2022-10-16T12:35:17;4.77;;;0.70;;
3189;SDS011;1606;51.946;10.558;2022-10-16T12:37:47;4.80;;;1.10;;
3189;SDS011;1606;51.946;10.558;2022-10-16T12:40:22;5.37;;;1.00;;
3189;SDS011;1606;51.946;10.558;2022-10-16T12:42:53;8.50;;;1.20;;
3189;SDS011;1606;51.946;10.558;2022-10-16T12:45:27;6.90;;;0.80;;
3189;SDS011;1606;51.946;10.558;2022-10-16T12:47:57;4.60;;;0.67;;
3189;SDS011;1606;51.946;10.558;2022-10-16T12:50:31;4.53;;;0.70;;
3189;SDS011;1606;51.946;10.558;2022-10-16T12:53:01;5.43;;;0.80;;
3189;SDS011;1606;51.946;10.558;2022-10-16T12:55:33;4.47;;;0.83;;
3189;SDS011;1606;51.946;10.558;2022-10-16T12:58:13;4.60;;;0.80;;
3189;SDS011;1606;51.946;10.558;2022-10-16T13:00:56;5.70;;;0.80;;
3189;SDS011;1606;51.946;10.558;2022-10-16T13:03:32;5.67;;;0.90;;
3189;SDS011;1606;51.946;10.558;2022-10-16T13:06:14;5.60;;;0.70;;
3189;SDS011;1606;51.946;10.558;2022-10-16T13:08:56;6.30;;;0.63;;
3189;SDS011;1606;51.946;10.558;2022-10-16T13:11:45;5.40;;;0.90;;
3189;SDS011;1606;51.946;10.558;2022-10-16T13:17:34;6.30;;;1.00;;
3189;SDS011;1606;51.946;10.558;2022-10-16T13:20:12;4.40;;;0.60;;
3189;SDS011;1606;51.946;10.558;2022-10-16T13:22:48;7.40;;;1.13;;
3189;SDS011;1606;51.946;10.558;2022-10-16T13:25:26;8.33;;;1.37;;
3189;SDS011;1606;51.946;10.558;2022-10-16T13:28:04;5.53;;;0.90;;
3189;SDS011;1606;51.946;10.558;2022-10-16T13:30:35;6.23;;;1.10;;
3189;SDS011;1606;51.946;10.558;2022-10-16T13:33:12;5.87;;;1.33;;
3189;SDS011;1606;51.946;10.558;2022-10-16T13:35:52;4.67;;;0.90;;
3189;SDS011;1606;51.946;10.558;2022-10-16T13:38:21;6.30;;;1.20;;
3189;SDS011;1606;51.946;10.558;2022-10-16T13:40:52;4.57;;;0.70;;
3189;SDS011;1606;51.946;10.558;2022-10-16T13:43:22;6.30;;;0.90;;
3189;SDS011;1606;51.946;10.558;2022-10-16T13:45:54;5.33;;;1.00;;
3189;SDS011;1606;51.946;10.558;2022-10-16T13:48:24;6.03;;;1.00;;
3189;SDS011;1606;51.946;10.558;2022-10-16T13:50:59;6.30;;;0.80;;
3189;SDS011;1606;51.946;10.558;2022-10-16T13:53:32;4.70;;;1.10;;
3189;SDS011;1606;51.946;10.558;2022-10-16T13:56:02;4.80;;;0.70;;
3189;SDS011;1606;51.946;10.558;2022-10-16T13:58:31;4.80;;;0.90;;
3189;SDS011;1606;51.946;10.558;2022-10-16T14:01:00;4.47;;;0.80;;
3189;SDS011;1606;51.946;10.558;2022-10-16T14:03:30;4.70;;;0.90;;
3189;SDS011;1606;51.946;10.558;2022-10-16T14:06:02;5.00;;;0.90;;
3189;SDS011;1606;51.946;10.558;2022-10-16T14:08:35;6.57;;;0.90;;
3189;SDS011;1606;51.946;10.558;2022-10-16T14:11:03;5.20;;;0.90;;
3189;SDS011;1606;51.946;10.558;2022-10-16T14:13:31;7.10;;;0.93;;
3189;SDS011;1606;51.946;10.558;2022-10-16T14:16:05;4.77;;;0.97;;
3189;SDS011;1606;51.946;10.558;2022-10-16T14:18:37;4.70;;;0.80;;
3189;SDS011;1606;51.946;10.558;2022-10-16T14:21:07;5.33;;;0.80;;
3189;SDS011;1606;51.946;10.558;2022-10-16T14:23:41;5.30;;;0.80;;
3189;SDS011;1606;51.946;10.558;2022-10-16T14:26:13;5.83;;;0.90;;
3189;SDS011;1606;51.946;10.558;2022-10-16T14:28:43;4.83;;;0.90;;
3189;SDS011;1606;51.946;10.558;2022-10-16T14:31:28;4.33;;;0.60;;
3189;SDS011;1606;51.946;10.558;2022-10-16T14:33:59;5.67;;;1.00;;
3189;SDS011;1606;51.946;10.558;2022-10-16T14:36:27;5.43;;;1.00;;
3189;SDS011;1606;51.946;10.558;2022-10-16T14:38:58;4.90;;;0.90;;
3189;SDS011;1606;51.946;10.558;2022-10-16T14:41:29;4.47;;;0.70;;
3189;SDS011;1606;51.946;10.558;2022-10-16T14:44:00;4.53;;;0.73;;
3189;SDS011;1606;51.946;10.558;2022-10-16T14:46:31;4.73;;;1.00;;
3189;SDS011;1606;51.946;10.558;2022-10-16T14:49:05;5.30;;;1.00;;
3189;SDS011;1606;51.946;10.558;2022-10-16T14:51:43;6.40;;;0.80;;
3189;SDS011;1606;51.946;10.558;2022-10-16T14:54:12;4.67;;;0.77;;
3189;SDS011;1606;51.946;10.558;2022-10-16T14:56:43;6.20;;;1.20;;
3189;SDS011;1606;51.946;10.558;2022-10-16T14:59:14;6.23;;;1.03;;
3189;SDS011;1606;51.946;10.558;2022-10-16T15:01:45;5.57;;;0.93;;
3189;SDS011;1606;51.946;10.558;2022-10-16T15:04:15;6.20;;;1.00;;
3189;SDS011;1606;51.946;10.558;2022-10-16T15:06:44;4.73;;;1.03;;
3189;SDS011;1606;51.946;10.558;2022-10-16T15:09:12;4.60;;;0.60;;
3189;SDS011;1606;51.946;10.558;2022-10-16T15:11:40;6.10;;;1.03;;
3189;SDS011;1606;51.946;10.558;2022-10-16T15:14:10;4.47;;;0.70;;
3189;SDS011;1606;51.946;10.558;2022-10-16T15:16:40;4.70;;;0.90;;
3189;SDS011;1606;51.946;10.558;2022-10-16T15:19:08;4.60;;;0.70;;
3189;SDS011;1606;51.946;10.558;2022-10-16T15:21:37;4.67;;;0.90;;
3189;SDS011;1606;51.946;10.558;2022-10-16T15:24:07;5.33;;;0.60;;
3189;SDS011;1606;51.946;10.558;2022-10-16T15:26:44;11.93;;;1.10;;
3189;SDS011;1606;51.946;10.558;2022-10-16T15:29:13;4.80;;;0.83;;
3189;SDS011;1606;51.946;10.558;2022-10-16T15:31:40;5.80;;;0.80;;
3189;SDS011;1606;51.946;10.558;2022-10-16T15:34:09;8.33;;;1.30;;